sensor_id;sensor_type;location;lat;lon;timestamp;pressure;altitude;pressure_sealevel;temperature;humidity
52839;BME280;39219;53.678;9.856;2022-07-25T00:02:02;101059.19;;;19.76;90.67
52839;BME280;39219;53.678;9.856;2022-07-25T00:04:28;101052.75;;;19.62;90.87
52839;BME280;39219;53.678;9.856;2022-07-25T00:06:55;101044.91;;;19.58;91.48
52839;BME280;39219;53.678;9.856;2022-07-25T00:09:21;101040.59;;;19.55;91.90
52839;BME280;39219;53.678;9.856;2022-07-25T00:11:48;101039.53;;;19.42;91.70
52839;BME280;39219;53.678;9.856;2022-07-25T00:14:16;101042.69;;;19.34;92.59
52839;BME280;39219;53.678;9.856;2022-07-25T00:16:42;101036.50;;;19.32;93.18
52839;BME280;39219;53.678;9.856;2022-07-25T00:19:09;101030.69;;;19.23;92.80
52839;BME280;39219;53.678;9.856;2022-07-25T00:21:35;101030.34;;;19.14;93.61
52839;BME280;39219;53.678;9.856;2022-07-25T00:24:02;101024.41;;;19.23;94.86
52839;BME280;39219;53.678;9.856;2022-07-25T00:26:28;101021.53;;;19.26;93.78
52839;BME280;39219;53.678;9.856;2022-07-25T00:28:55;101030.56;;;19.25;93.68
52839;BME280;39219;53.678;9.856;2022-07-25T00:31:23;101022.34;;;19.44;93.18
52839;BME280;39219;53.678;9.856;2022-07-25T00:33:49;101023.56;;;19.38;92.44
52839;BME280;39219;53.678;9.856;2022-07-25T00:36:16;101022.19;;;19.47;92.75
52839;BME280;39219;53.678;9.856;2022-07-25T00:38:42;101016.97;;;19.44;92.47
52839;BME280;39219;53.678;9.856;2022-07-25T00:41:09;101020.69;;;19.26;93.65
52839;BME280;39219;53.678;9.856;2022-07-25T00:43:35;101010.16;;;19.05;94.02
52839;BME280;39219;53.678;9.856;2022-07-25T00:46:02;101009.03;;;19.25;93.58
52839;BME280;39219;53.678;9.856;2022-07-25T00:48:30;101009.66;;;19.14;93.73
52839;BME280;39219;53.678;9.856;2022-07-25T00:50:57;101004.31;;;18.97;94.48
52839;BME280;39219;53.678;9.856;2022-07-25T00:53:24;101001.84;;;19.09;94.67
52839;BME280;39219;53.678;9.856;2022-07-25T00:55:51;100991.94;;;19.26;93.64
52839;BME280;39219;53.678;9.856;2022-07-25T00:58:18;100989.50;;;19.21;93.45
52839;BME280;39219;53.678;9.856;2022-07-25T01:00:45;100994.72;;;19.41;92.51
52839;BME280;39219;53.678;9.856;2022-07-25T01:03:12;100994.53;;;19.44;91.58
52839;BME280;39219;53.678;9.856;2022-07-25T01:05:40;100997.41;;;19.41;91.82
52839;BME280;39219;53.678;9.856;2022-07-25T01:08:07;101002.19;;;19.35;92.15
52839;BME280;39219;53.678;9.856;2022-07-25T01:10:34;100997.06;;;19.31;92.35
52839;BME280;39219;53.678;9.856;2022-07-25T01:13:01;100995.94;;;19.19;92.57
52839;BME280;39219;53.678;9.856;2022-07-25T01:15:28;100995.94;;;19.19;93.21
52839;BME280;39219;53.678;9.856;2022-07-25T01:17:54;100997.25;;;19.28;92.70
52839;BME280;39219;53.678;9.856;2022-07-25T01:20:25;100992.31;;;19.36;92.02
52839;BME280;39219;53.678;9.856;2022-07-25T01:22:52;100984.47;;;19.31;91.67
52839;BME280;39219;53.678;9.856;2022-07-25T01:25:19;100984.91;;;19.23;92.14
52839;BME280;39219;53.678;9.856;2022-07-25T01:27:46;100986.31;;;19.15;92.50
52839;BME280;39219;53.678;9.856;2022-07-25T01:30:14;100979.25;;;19.12;92.22
52839;BME280;39219;53.678;9.856;2022-07-25T01:32:42;100981.34;;;19.07;92.62
52839;BME280;39219;53.678;9.856;2022-07-25T01:35:10;100976.41;;;19.15;92.14
52839;BME280;39219;53.678;9.856;2022-07-25T01:37:38;100978.06;;;19.18;91.40
52839;BME280;39219;53.678;9.856;2022-07-25T01:40:06;100980.22;;;19.11;91.74
52839;BME280;39219;53.678;9.856;2022-07-25T01:42:33;100975.88;;;19.08;92.05
52839;BME280;39219;53.678;9.856;2022-07-25T01:45:01;100972.75;;;19.16;91.30
52839;BME280;39219;53.678;9.856;2022-07-25T01:47:27;100967.97;;;19.21;90.68
52839;BME280;39219;53.678;9.856;2022-07-25T01:49:54;100965.00;;;19.26;90.24
52839;BME280;39219;53.678;9.856;2022-07-25T01:52:21;100959.09;;;19.35;89.21
52839;BME280;39219;53.678;9.856;2022-07-25T01:54:49;100960.41;;;19.28;89.08
52839;BME280;39219;53.678;9.856;2022-07-25T01:57:15;100954.78;;;19.17;89.50
52839;BME280;39219;53.678;9.856;2022-07-25T01:59:42;100950.72;;;19.09;89.78
52839;BME280;39219;53.678;9.856;2022-07-25T02:02:08;100941.72;;;18.93;90.56
52839;BME280;39219;53.678;9.856;2022-07-25T02:04:35;100940.16;;;18.89;91.15
52839;BME280;39219;53.678;9.856;2022-07-25T02:07:02;100935.09;;;18.83;91.00
52839;BME280;39219;53.678;9.856;2022-07-25T02:09:29;100932.59;;;18.79;90.98
52839;BME280;39219;53.678;9.856;2022-07-25T02:11:56;100929.13;;;18.77;90.73
52839;BME280;39219;53.678;9.856;2022-07-25T02:14:23;100926.59;;;18.90;88.98
52839;BME280;39219;53.678;9.856;2022-07-25T02:16:49;100928.34;;;18.91;88.41
52839;BME280;39219;53.678;9.856;2022-07-25T02:19:16;100925.66;;;18.91;87.64
52839;BME280;39219;53.678;9.856;2022-07-25T02:21:42;100929.06;;;18.95;86.85
52839;BME280;39219;53.678;9.856;2022-07-25T02:24:09;100920.66;;;19.01;85.68
52839;BME280;39219;53.678;9.856;2022-07-25T02:26:35;100916.31;;;18.99;85.55
52839;BME280;39219;53.678;9.856;2022-07-25T02:29:03;100909.81;;;19.03;84.50
52839;BME280;39219;53.678;9.856;2022-07-25T02:31:30;100907.88;;;19.05;83.88
52839;BME280;39219;53.678;9.856;2022-07-25T02:33:56;100905.38;;;19.18;82.07
52839;BME280;39219;53.678;9.856;2022-07-25T02:36:23;100908.47;;;19.26;81.17
52839;BME280;39219;53.678;9.856;2022-07-25T02:38:49;100896.84;;;19.26;80.87
52839;BME280;39219;53.678;9.856;2022-07-25T02:41:16;100900.06;;;19.32;80.42
52839;BME280;39219;53.678;9.856;2022-07-25T02:43:42;100889.47;;;19.29;80.36
52839;BME280;39219;53.678;9.856;2022-07-25T02:46:10;100888.97;;;19.22;80.56
52839;BME280;39219;53.678;9.856;2022-07-25T02:48:37;100890.78;;;19.22;79.72
52839;BME280;39219;53.678;9.856;2022-07-25T02:51:03;100883.06;;;19.16;80.21
52839;BME280;39219;53.678;9.856;2022-07-25T02:53:30;100874.81;;;19.19;78.82
52839;BME280;39219;53.678;9.856;2022-07-25T02:55:56;100872.97;;;19.19;78.54
52839;BME280;39219;53.678;9.856;2022-07-25T02:58:23;100882.63;;;19.23;77.51
52839;BME280;39219;53.678;9.856;2022-07-25T03:00:49;100874.25;;;19.28;77.61
52839;BME280;39219;53.678;9.856;2022-07-25T03:03:17;100876.53;;;19.36;76.57
52839;BME280;39219;53.678;9.856;2022-07-25T03:05:44;100871.75;;;19.41;76.32
52839;BME280;39219;53.678;9.856;2022-07-25T03:08:10;100867.50;;;19.37;76.59
52839;BME280;39219;53.678;9.856;2022-07-25T03:10:37;100868.16;;;19.41;77.27
52839;BME280;39219;53.678;9.856;2022-07-25T03:13:03;100863.50;;;19.28;77.47
52839;BME280;39219;53.678;9.856;2022-07-25T03:15:30;100857.84;;;19.33;76.62
52839;BME280;39219;53.678;9.856;2022-07-25T03:17:56;100867.22;;;19.42;76.32
52839;BME280;39219;53.678;9.856;2022-07-25T03:20:24;100860.63;;;19.31;77.53
52839;BME280;39219;53.678;9.856;2022-07-25T03:22:51;100860.63;;;19.31;77.39
52839;BME280;39219;53.678;9.856;2022-07-25T03:25:17;100852.91;;;19.25;77.83
52839;BME280;39219;53.678;9.856;2022-07-25T03:27:44;100847.53;;;19.25;78.04
52839;BME280;39219;53.678;9.856;2022-07-25T03:30:11;100850.63;;;19.33;77.16
52839;BME280;39219;53.678;9.856;2022-07-25T03:32:37;100849.84;;;19.31;77.43
52839;BME280;39219;53.678;9.856;2022-07-25T03:35:06;100842.19;;;19.39;76.43
52839;BME280;39219;53.678;9.856;2022-07-25T03:37:33;100836.44;;;19.46;76.37
52839;BME280;39219;53.678;9.856;2022-07-25T03:40:00;100832.25;;;19.56;75.80
52839;BME280;39219;53.678;9.856;2022-07-25T03:42:26;100828.00;;;19.52;75.37
52839;BME280;39219;53.678;9.856;2022-07-25T03:44:53;100824.16;;;19.56;75.24
52839;BME280;39219;53.678;9.856;2022-07-25T03:47:19;100824.94;;;19.58;75.73
52839;BME280;39219;53.678;9.856;2022-07-25T03:49:46;100820.16;;;19.63;75.85
52839;BME280;39219;53.678;9.856;2022-07-25T03:52:12;100822.91;;;19.62;75.22
52839;BME280;39219;53.678;9.856;2022-07-25T03:54:40;100818.03;;;19.68;74.70
52839;BME280;39219;53.678;9.856;2022-07-25T03:57:07;100816.31;;;19.67;74.61
52839;BME280;39219;53.678;9.856;2022-07-25T03:59:34;100812.75;;;19.81;73.51
52839;BME280;39219;53.678;9.856;2022-07-25T04:02:01;100805.75;;;19.93;72.35
52839;BME280;39219;53.678;9.856;2022-07-25T04:04:27;100794.34;;;20.04;71.76
52839;BME280;39219;53.678;9.856;2022-07-25T04:06:54;100804.44;;;20.15;71.42
52839;BME280;39219;53.678;9.856;2022-07-25T04:09:20;100794.34;;;20.19;71.31
52839;BME280;39219;53.678;9.856;2022-07-25T04:11:48;100784.78;;;20.27;70.28
52839;BME280;39219;53.678;9.856;2022-07-25T04:14:15;100785.53;;;20.44;70.75
52839;BME280;39219;53.678;9.856;2022-07-25T04:16:41;100787.84;;;20.50;69.86
52839;BME280;39219;53.678;9.856;2022-07-25T04:19:08;100782.53;;;20.49;69.35
52839;BME280;39219;53.678;9.856;2022-07-25T04:21:34;100774.16;;;20.53;68.47
52839;BME280;39219;53.678;9.856;2022-07-25T04:24:01;100786.25;;;20.61;68.32
52839;BME280;39219;53.678;9.856;2022-07-25T04:26:27;100783.47;;;20.62;67.79
52839;BME280;39219;53.678;9.856;2022-07-25T04:28:55;100770.03;;;20.75;67.58
52839;BME280;39219;53.678;9.856;2022-07-25T04:31:23;100771.00;;;20.74;66.86
52839;BME280;39219;53.678;9.856;2022-07-25T04:33:50;100768.47;;;20.85;66.41
52839;BME280;39219;53.678;9.856;2022-07-25T04:36:16;100765.41;;;21.05;66.16
52839;BME280;39219;53.678;9.856;2022-07-25T04:38:42;100753.78;;;21.17;65.37
52839;BME280;39219;53.678;9.856;2022-07-25T04:41:09;100755.84;;;21.39;65.49
52839;BME280;39219;53.678;9.856;2022-07-25T04:43:36;100753.50;;;21.48;65.52
52839;BME280;39219;53.678;9.856;2022-07-25T04:46:04;100750.47;;;21.39;64.00
52839;BME280;39219;53.678;9.856;2022-07-25T04:48:30;100742.81;;;21.46;64.50
52839;BME280;39219;53.678;9.856;2022-07-25T04:50:57;100745.06;;;21.39;64.68
52839;BME280;39219;53.678;9.856;2022-07-25T04:53:23;100735.13;;;21.40;63.76
52839;BME280;39219;53.678;9.856;2022-07-25T04:55:50;100730.91;;;21.49;64.27
52839;BME280;39219;53.678;9.856;2022-07-25T04:58:16;100727.78;;;21.55;63.79
52839;BME280;39219;53.678;9.856;2022-07-25T05:00:43;100724.44;;;21.51;65.40
52839;BME280;39219;53.678;9.856;2022-07-25T05:03:11;100719.91;;;21.52;64.67
52839;BME280;39219;53.678;9.856;2022-07-25T05:05:37;100716.44;;;21.37;63.20
52839;BME280;39219;53.678;9.856;2022-07-25T05:08:04;100716.22;;;21.53;64.38
52839;BME280;39219;53.678;9.856;2022-07-25T05:10:30;100708.34;;;21.63;63.12
52839;BME280;39219;53.678;9.856;2022-07-25T05:12:57;100710.63;;;21.69;63.18
52839;BME280;39219;53.678;9.856;2022-07-25T05:15:24;100717.06;;;21.92;62.74
52839;BME280;39219;53.678;9.856;2022-07-25T05:17:51;100710.50;;;22.21;61.45
52839;BME280;39219;53.678;9.856;2022-07-25T05:20:19;100701.91;;;22.53;60.17
52839;BME280;39219;53.678;9.856;2022-07-25T05:22:46;100704.34;;;22.80;60.49
52839;BME280;39219;53.678;9.856;2022-07-25T05:25:12;100705.47;;;23.13;58.69
52839;BME280;39219;53.678;9.856;2022-07-25T05:27:39;100694.50;;;23.85;55.71
52839;BME280;39219;53.678;9.856;2022-07-25T05:30:09;100703.81;;;24.70;53.36
52839;BME280;39219;53.678;9.856;2022-07-25T05:32:37;100696.50;;;25.67;50.30
52839;BME280;39219;53.678;9.856;2022-07-25T05:35:04;100701.63;;;26.52;47.18
52839;BME280;39219;53.678;9.856;2022-07-25T05:37:33;100699.84;;;26.21;47.35
52839;BME280;39219;53.678;9.856;2022-07-25T05:39:59;100700.34;;;26.56;47.69
52839;BME280;39219;53.678;9.856;2022-07-25T05:42:27;100688.06;;;26.91;46.75
52839;BME280;39219;53.678;9.856;2022-07-25T05:44:53;100692.44;;;27.31;44.72
52839;BME280;39219;53.678;9.856;2022-07-25T05:47:20;100686.75;;;27.15;45.13
52839;BME280;39219;53.678;9.856;2022-07-25T05:49:46;100688.59;;;26.45;45.48
52839;BME280;39219;53.678;9.856;2022-07-25T05:52:13;100687.59;;;27.73;42.96
52839;BME280;39219;53.678;9.856;2022-07-25T05:54:41;100683.41;;;29.33;40.90
52839;BME280;39219;53.678;9.856;2022-07-25T05:57:07;100678.00;;;30.03;38.46
52839;BME280;39219;53.678;9.856;2022-07-25T05:59:34;100677.50;;;28.93;40.90
52839;BME280;39219;53.678;9.856;2022-07-25T06:02:01;100667.41;;;28.40;40.97
52839;BME280;39219;53.678;9.856;2022-07-25T06:04:27;100669.09;;;27.94;42.37
52839;BME280;39219;53.678;9.856;2022-07-25T06:06:54;100666.41;;;28.22;42.42
52839;BME280;39219;53.678;9.856;2022-07-25T06:09:21;100666.09;;;29.24;40.13
52839;BME280;39219;53.678;9.856;2022-07-25T06:11:50;100667.66;;;30.48;38.80
52839;BME280;39219;53.678;9.856;2022-07-25T06:14:17;100661.72;;;31.02;37.63
52839;BME280;39219;53.678;9.856;2022-07-25T06:16:44;100667.78;;;31.62;37.05
52839;BME280;39219;53.678;9.856;2022-07-25T06:19:10;100661.03;;;31.08;36.96
52839;BME280;39219;53.678;9.856;2022-07-25T06:21:37;100656.34;;;29.83;40.30
52839;BME280;39219;53.678;9.856;2022-07-25T06:24:03;100652.63;;;29.31;39.01
52839;BME280;39219;53.678;9.856;2022-07-25T06:26:30;100651.59;;;28.43;41.86
52839;BME280;39219;53.678;9.856;2022-07-25T06:28:58;100655.34;;;27.86;41.94
52839;BME280;39219;53.678;9.856;2022-07-25T06:31:24;100644.38;;;29.23;41.71
52839;BME280;39219;53.678;9.856;2022-07-25T06:33:51;100648.66;;;30.54;39.12
52839;BME280;39219;53.678;9.856;2022-07-25T06:36:17;100651.31;;;30.05;38.18
52839;BME280;39219;53.678;9.856;2022-07-25T06:38:44;100649.69;;;28.98;41.41
52839;BME280;39219;53.678;9.856;2022-07-25T06:41:13;100649.25;;;28.85;41.36
52839;BME280;39219;53.678;9.856;2022-07-25T06:43:40;100639.97;;;29.30;39.82
52839;BME280;39219;53.678;9.856;2022-07-25T06:46:08;100650.66;;;30.11;40.09
52839;BME280;39219;53.678;9.856;2022-07-25T06:48:35;100651.22;;;29.80;40.72
52839;BME280;39219;53.678;9.856;2022-07-25T06:51:02;100653.78;;;30.24;38.97
52839;BME280;39219;53.678;9.856;2022-07-25T06:53:28;100652.44;;;30.37;39.44
52839;BME280;39219;53.678;9.856;2022-07-25T06:55:55;100639.75;;;29.84;39.36
52839;BME280;39219;53.678;9.856;2022-07-25T06:58:21;100644.00;;;30.13;39.84
52839;BME280;39219;53.678;9.856;2022-07-25T07:00:48;100644.47;;;30.09;39.79
52839;BME280;39219;53.678;9.856;2022-07-25T07:03:16;100646.97;;;30.62;39.36
52839;BME280;39219;53.678;9.856;2022-07-25T07:05:43;100639.97;;;30.67;38.42
52839;BME280;39219;53.678;9.856;2022-07-25T07:08:09;100637.69;;;30.29;39.29
52839;BME280;39219;53.678;9.856;2022-07-25T07:10:36;100629.81;;;30.51;38.29
52839;BME280;39219;53.678;9.856;2022-07-25T07:13:05;100636.50;;;31.31;37.15
52839;BME280;39219;53.678;9.856;2022-07-25T07:15:32;100633.22;;;31.28;36.73
52839;BME280;39219;53.678;9.856;2022-07-25T07:17:59;100626.16;;;31.90;36.88
52839;BME280;39219;53.678;9.856;2022-07-25T07:20:27;100625.31;;;32.21;36.46
52839;BME280;39219;53.678;9.856;2022-07-25T07:22:53;100615.97;;;31.19;37.24
52839;BME280;39219;53.678;9.856;2022-07-25T07:25:20;100614.09;;;30.95;37.86
52839;BME280;39219;53.678;9.856;2022-07-25T07:27:49;100612.59;;;30.59;37.80
52839;BME280;39219;53.678;9.856;2022-07-25T07:30:16;100614.94;;;30.46;39.12
52839;BME280;39219;53.678;9.856;2022-07-25T07:32:44;100610.25;;;31.29;38.87
52839;BME280;39219;53.678;9.856;2022-07-25T07:35:11;100600.03;;;30.98;37.31
52839;BME280;39219;53.678;9.856;2022-07-25T07:37:42;100601.59;;;31.97;37.37
52839;BME280;39219;53.678;9.856;2022-07-25T07:40:09;100602.22;;;32.77;35.05
52839;BME280;39219;53.678;9.856;2022-07-25T07:42:37;100595.44;;;32.18;35.90
52839;BME280;39219;53.678;9.856;2022-07-25T07:45:13;100590.78;;;32.18;36.28
52839;BME280;39219;53.678;9.856;2022-07-25T07:47:39;100585.28;;;31.07;37.32
52839;BME280;39219;53.678;9.856;2022-07-25T07:50:07;100573.63;;;31.13;37.94
52839;BME280;39219;53.678;9.856;2022-07-25T07:52:34;100561.09;;;31.11;36.13
52839;BME280;39219;53.678;9.856;2022-07-25T07:55:03;100568.84;;;31.07;36.06
52839;BME280;39219;53.678;9.856;2022-07-25T07:57:47;100571.88;;;31.21;35.38
52839;BME280;39219;53.678;9.856;2022-07-25T08:00:15;100561.84;;;30.88;36.16
52839;BME280;39219;53.678;9.856;2022-07-25T08:02:43;100561.31;;;31.01;36.23
52839;BME280;39219;53.678;9.856;2022-07-25T08:05:10;100560.00;;;30.64;38.44
52839;BME280;39219;53.678;9.856;2022-07-25T08:07:37;100566.16;;;30.57;36.78
52839;BME280;39219;53.678;9.856;2022-07-25T08:10:06;100559.47;;;30.35;37.24
52839;BME280;39219;53.678;9.856;2022-07-25T08:12:38;100564.59;;;30.13;37.91
52839;BME280;39219;53.678;9.856;2022-07-25T08:15:06;100561.59;;;29.74;38.10
52839;BME280;39219;53.678;9.856;2022-07-25T08:17:35;100559.59;;;29.49;38.08
52839;BME280;39219;53.678;9.856;2022-07-25T08:20:02;100555.28;;;29.90;37.83
52839;BME280;39219;53.678;9.856;2022-07-25T08:22:36;100544.06;;;30.26;37.54
52839;BME280;39219;53.678;9.856;2022-07-25T08:25:03;100535.34;;;30.64;37.63
52839;BME280;39219;53.678;9.856;2022-07-25T08:27:31;100540.75;;;30.97;36.66
52839;BME280;39219;53.678;9.856;2022-07-25T08:29:57;100527.50;;;31.25;37.78
52839;BME280;39219;53.678;9.856;2022-07-25T08:32:25;100545.16;;;31.94;36.30
52839;BME280;39219;53.678;9.856;2022-07-25T08:34:52;100530.63;;;31.54;36.84
52839;BME280;39219;53.678;9.856;2022-07-25T08:37:18;100539.19;;;31.19;37.30
52839;BME280;39219;53.678;9.856;2022-07-25T08:39:45;100523.41;;;31.21;37.89
52839;BME280;39219;53.678;9.856;2022-07-25T08:42:12;100515.94;;;30.82;38.43
52839;BME280;39219;53.678;9.856;2022-07-25T08:44:43;100524.34;;;30.80;38.09
52839;BME280;39219;53.678;9.856;2022-07-25T08:47:14;100516.66;;;30.34;37.99
52839;BME280;39219;53.678;9.856;2022-07-25T08:49:40;100512.34;;;29.90;39.38
52839;BME280;39219;53.678;9.856;2022-07-25T08:52:07;100519.75;;;30.31;39.53
52839;BME280;39219;53.678;9.856;2022-07-25T08:54:34;100519.25;;;30.44;38.94
52839;BME280;39219;53.678;9.856;2022-07-25T08:57:01;100521.66;;;30.22;38.66
52839;BME280;39219;53.678;9.856;2022-07-25T08:59:29;100507.88;;;29.64;40.03
52839;BME280;39219;53.678;9.856;2022-07-25T09:01:57;100510.28;;;29.76;41.36
52839;BME280;39219;53.678;9.856;2022-07-25T09:04:27;100508.47;;;29.42;40.70
52839;BME280;39219;53.678;9.856;2022-07-25T09:06:53;100512.16;;;29.83;41.96
52839;BME280;39219;53.678;9.856;2022-07-25T09:09:29;100503.31;;;30.64;40.22
52839;BME280;39219;53.678;9.856;2022-07-25T09:11:57;100506.75;;;31.23;39.07
52839;BME280;39219;53.678;9.856;2022-07-25T09:14:23;100502.06;;;32.18;37.72
52839;BME280;39219;53.678;9.856;2022-07-25T09:16:50;100497.75;;;32.77;36.75
52839;BME280;39219;53.678;9.856;2022-07-25T09:19:19;100501.06;;;32.72;37.40
52839;BME280;39219;53.678;9.856;2022-07-25T09:21:57;100496.28;;;32.51;36.43
52839;BME280;39219;53.678;9.856;2022-07-25T09:24:24;100495.72;;;32.17;36.79
52839;BME280;39219;53.678;9.856;2022-07-25T09:26:52;100492.25;;;32.00;38.20
52839;BME280;39219;53.678;9.856;2022-07-25T09:29:21;100490.75;;;31.74;37.21
52839;BME280;39219;53.678;9.856;2022-07-25T09:31:48;100494.25;;;31.12;38.35
52839;BME280;39219;53.678;9.856;2022-07-25T09:34:34;100486.22;;;31.10;39.76
52839;BME280;39219;53.678;9.856;2022-07-25T09:37:03;100484.41;;;31.66;38.83
52839;BME280;39219;53.678;9.856;2022-07-25T09:39:35;100485.94;;;31.77;37.58
52839;BME280;39219;53.678;9.856;2022-07-25T09:42:13;100485.94;;;31.77;38.16
52839;BME280;39219;53.678;9.856;2022-07-25T09:44:40;100482.66;;;32.19;38.09
52839;BME280;39219;53.678;9.856;2022-07-25T09:47:10;100477.06;;;32.51;37.01
52839;BME280;39219;53.678;9.856;2022-07-25T09:49:43;100484.00;;;32.62;38.23
52839;BME280;39219;53.678;9.856;2022-07-25T09:52:11;100472.44;;;32.67;37.14
52839;BME280;39219;53.678;9.856;2022-07-25T09:54:38;100477.09;;;32.81;36.50
52839;BME280;39219;53.678;9.856;2022-07-25T09:57:05;100474.13;;;32.38;35.95
52839;BME280;39219;53.678;9.856;2022-07-25T09:59:32;100470.72;;;32.12;37.75
52839;BME280;39219;53.678;9.856;2022-07-25T10:02:04;100461.69;;;32.03;37.05
52839;BME280;39219;53.678;9.856;2022-07-25T10:04:43;100473.59;;;31.96;38.79
52839;BME280;39219;53.678;9.856;2022-07-25T10:07:11;100468.34;;;31.86;38.65
52839;BME280;39219;53.678;9.856;2022-07-25T10:09:41;100466.75;;;31.68;38.42
52839;BME280;39219;53.678;9.856;2022-07-25T10:12:09;100477.69;;;31.77;38.97
52839;BME280;39219;53.678;9.856;2022-07-25T10:14:37;100462.66;;;31.64;38.46
52839;BME280;39219;53.678;9.856;2022-07-25T10:17:04;100459.66;;;31.51;38.17
52839;BME280;39219;53.678;9.856;2022-07-25T10:19:43;100463.31;;;31.43;39.01
52839;BME280;39219;53.678;9.856;2022-07-25T10:22:11;100462.66;;;31.64;39.54
52839;BME280;39219;53.678;9.856;2022-07-25T10:24:41;100458.59;;;31.83;38.18
52839;BME280;39219;53.678;9.856;2022-07-25T10:27:10;100456.22;;;32.18;38.77
52839;BME280;39219;53.678;9.856;2022-07-25T10:29:37;100460.69;;;32.43;37.67
52839;BME280;39219;53.678;9.856;2022-07-25T10:32:05;100451.09;;;32.15;36.82
52839;BME280;39219;53.678;9.856;2022-07-25T10:34:33;100457.97;;;31.73;38.29
52839;BME280;39219;53.678;9.856;2022-07-25T10:37:10;100455.91;;;31.43;38.61
52839;BME280;39219;53.678;9.856;2022-07-25T10:39:38;100454.25;;;31.34;39.51
52839;BME280;39219;53.678;9.856;2022-07-25T10:42:05;100449.91;;;31.71;39.31
52839;BME280;39219;53.678;9.856;2022-07-25T10:44:40;100444.31;;;31.88;39.16
52839;BME280;39219;53.678;9.856;2022-07-25T10:47:08;100440.44;;;31.97;39.01
52839;BME280;39219;53.678;9.856;2022-07-25T10:49:38;100444.31;;;32.26;37.94
52839;BME280;39219;53.678;9.856;2022-07-25T10:52:05;100448.63;;;32.05;38.25
52839;BME280;39219;53.678;9.856;2022-07-25T10:54:35;100447.78;;;32.05;38.09
52839;BME280;39219;53.678;9.856;2022-07-25T10:57:03;100434.78;;;32.52;38.16
52839;BME280;39219;53.678;9.856;2022-07-25T10:59:33;100450.53;;;32.58;37.62
52839;BME280;39219;53.678;9.856;2022-07-25T11:02:00;100449.78;;;32.64;37.11
52839;BME280;39219;53.678;9.856;2022-07-25T11:04:27;100438.81;;;32.11;37.04
52839;BME280;39219;53.678;9.856;2022-07-25T11:06:54;100439.28;;;31.77;37.05
52839;BME280;39219;53.678;9.856;2022-07-25T11:09:22;100432.53;;;31.56;37.72
52839;BME280;39219;53.678;9.856;2022-07-25T11:11:52;100429.78;;;31.56;38.24
52839;BME280;39219;53.678;9.856;2022-07-25T11:14:21;100436.63;;;31.83;37.35
52839;BME280;39219;53.678;9.856;2022-07-25T11:16:49;100437.78;;;32.27;37.08
52839;BME280;39219;53.678;9.856;2022-07-25T11:19:18;100442.47;;;32.03;37.35
52839;BME280;39219;53.678;9.856;2022-07-25T11:21:46;100433.41;;;32.18;37.55
52839;BME280;39219;53.678;9.856;2022-07-25T11:24:13;100434.81;;;32.14;37.06
52839;BME280;39219;53.678;9.856;2022-07-25T11:26:51;100429.25;;;32.22;37.61
52839;BME280;39219;53.678;9.856;2022-07-25T11:29:19;100422.28;;;31.96;37.05
52839;BME280;39219;53.678;9.856;2022-07-25T11:31:56;100429.50;;;31.74;37.58
52839;BME280;39219;53.678;9.856;2022-07-25T11:34:26;100421.13;;;31.67;38.40
52839;BME280;39219;53.678;9.856;2022-07-25T11:36:54;100418.72;;;32.26;38.87
52839;BME280;39219;53.678;9.856;2022-07-25T11:39:22;100403.63;;;32.30;38.50
52839;BME280;39219;53.678;9.856;2022-07-25T11:41:59;100414.34;;;32.40;37.31
52839;BME280;39219;53.678;9.856;2022-07-25T11:44:34;100406.19;;;32.31;37.28
52839;BME280;39219;53.678;9.856;2022-07-25T11:47:01;100418.03;;;32.62;37.43
52839;BME280;39219;53.678;9.856;2022-07-25T11:49:28;100416.25;;;32.84;37.33
52839;BME280;39219;53.678;9.856;2022-07-25T11:51:54;100409.34;;;32.88;36.20
52839;BME280;39219;53.678;9.856;2022-07-25T11:54:21;100406.22;;;33.28;36.33
52839;BME280;39219;53.678;9.856;2022-07-25T11:56:47;100405.84;;;33.53;35.43
52839;BME280;39219;53.678;9.856;2022-07-25T11:59:15;100396.41;;;34.06;36.19
52839;BME280;39219;53.678;9.856;2022-07-25T12:01:42;100398.44;;;33.97;34.00
52839;BME280;39219;53.678;9.856;2022-07-25T12:04:11;100375.84;;;33.21;35.85
52839;BME280;39219;53.678;9.856;2022-07-25T12:06:38;100356.53;;;32.63;35.81
52839;BME280;39219;53.678;9.856;2022-07-25T12:09:10;100376.63;;;32.63;34.23
52839;BME280;39219;53.678;9.856;2022-07-25T12:11:36;100368.88;;;32.67;34.82
52839;BME280;39219;53.678;9.856;2022-07-25T12:14:04;100364.38;;;32.81;35.21
52839;BME280;39219;53.678;9.856;2022-07-25T12:16:32;100366.38;;;32.87;34.74
52839;BME280;39219;53.678;9.856;2022-07-25T12:18:58;100373.72;;;33.17;34.64
52839;BME280;39219;53.678;9.856;2022-07-25T12:21:26;100337.91;;;33.10;33.86
52839;BME280;39219;53.678;9.856;2022-07-25T12:23:52;100366.44;;;33.09;34.64
52839;BME280;39219;53.678;9.856;2022-07-25T12:26:19;100367.09;;;33.33;34.36
52839;BME280;39219;53.678;9.856;2022-07-25T12:28:45;100385.28;;;33.92;33.90
52839;BME280;39219;53.678;9.856;2022-07-25T12:31:12;100377.44;;;34.24;33.25
52839;BME280;39219;53.678;9.856;2022-07-25T12:33:40;100371.53;;;34.56;32.56
52839;BME280;39219;53.678;9.856;2022-07-25T12:36:07;100382.13;;;34.24;32.83
52839;BME280;39219;53.678;9.856;2022-07-25T12:38:36;100382.94;;;34.18;32.52
52839;BME280;39219;53.678;9.856;2022-07-25T12:41:03;100369.97;;;32.73;34.45
52839;BME280;39219;53.678;9.856;2022-07-25T12:43:30;100369.94;;;32.13;35.37
52839;BME280;39219;53.678;9.856;2022-07-25T12:45:56;100367.88;;;32.00;35.61
52839;BME280;39219;53.678;9.856;2022-07-25T12:48:22;100379.69;;;32.39;35.79
52839;BME280;39219;53.678;9.856;2022-07-25T12:50:51;100381.53;;;32.53;35.96
52839;BME280;39219;53.678;9.856;2022-07-25T12:53:18;100373.66;;;32.05;35.74